Time;durP1;ratioP1;P1;durP2;ratioP2;P2;SDS_P1;SDS_P2;PMS_P1;PMS_P2;Temp;Humidity;BMP_temperature;BMP_pressure;BME280_temperature;BME280_humidity;BME280_pressure;Samples;Min_cycle;Max_cycle;Signal;HPM_P1;HPM_P2
2023/08/07 00:00:19;;;;;;;7.68;3.42;;;;;;;15.47;97.85;100122.91;5089739;28;20384;-63
2023/08/07 00:02:44;;;;;;;7.43;3.08;;;;;;;15.44;97.55;100120.41;5088328;28;20032;-63
2023/08/07 00:05:10;;;;;;;7.68;2.97;;;;;;;15.41;97.57;100117.88;5072048;28;20025;-63
2023/08/07 00:07:35;;;;;;;8.23;3.88;;;;;;;15.42;97.42;100130.31;5085584;28;20496;-62
2023/08/07 00:10:01;;;;;;;6.88;2.55;;;;;;;15.44;97.16;100136.47;5083517;28;20349;-63
2023/08/07 00:12:27;;;;;;;4.45;1.90;;;;;;;15.41;96.56;100136.63;5091480;28;20085;-63
2023/08/07 00:14:52;;;;;;;6.82;2.30;;;;;;;15.41;96.73;100131.28;5087829;28;20073;-63
2023/08/07 00:17:18;;;;;;;4.68;1.90;;;;;;;15.40;95.38;100137.56;5084672;28;20036;-63
2023/08/07 00:19:44;;;;;;;5.00;2.13;;;;;;;15.35;96.13;100131.53;5090392;28;20039;-63
2023/08/07 00:22:09;;;;;;;5.30;2.38;;;;;;;15.37;95.60;100137.69;5078584;28;20028;-63
2023/08/07 00:24:35;;;;;;;4.65;2.00;;;;;;;15.46;95.14;100139.94;5070894;28;20459;-63
2023/08/07 00:27:01;;;;;;;3.08;1.40;;;;;;;15.45;94.81;100145.41;5071246;28;20376;-63
2023/08/07 00:29:26;;;;;;;7.43;2.75;;;;;;;15.40;95.00;100140.25;5086470;28;20028;-63
2023/08/07 00:31:52;;;;;;;2.50;1.30;;;;;;;15.47;95.36;100146.16;5091204;28;20071;-63
2023/08/07 00:34:17;;;;;;;3.60;1.55;;;;;;;15.48;93.73;100145.22;5082837;28;20132;-62
2023/08/07 00:36:43;;;;;;;4.40;1.42;;;;;;;15.49;93.98;100145.16;5082803;28;20172;-63
2023/08/07 00:39:08;;;;;;;2.67;1.23;;;;;;;15.48;93.01;100140.75;5089716;28;20032;-63
2023/08/07 00:41:34;;;;;;;2.45;1.35;;;;;;;15.49;93.33;100145.16;5085732;28;20025;-63
2023/08/07 00:44:00;;;;;;;5.18;1.70;;;;;;;15.48;92.77;100148.78;5071294;28;20036;-63
2023/08/07 00:46:27;;;;;;;4.60;1.20;;;;;;;15.42;92.16;100146.41;5076054;28;20027;-63
2023/08/07 00:48:53;;;;;;;2.72;1.20;;;;;;;15.39;91.98;100149.25;5090590;28;20152;-63
2023/08/07 00:51:20;;;;;;;3.33;1.30;;;;;;;15.42;92.08;100133.00;5090623;28;20046;-62
2023/08/07 00:53:46;;;;;;;4.18;1.33;;;;;;;15.82;88.23;100147.91;5075463;28;20105;-62
2023/08/07 00:56:12;;;;;;;1.90;1.17;;;;;;;15.68;89.11;100143.25;5088002;28;20032;-62
2023/08/07 00:58:38;;;;;;;2.50;1.40;;;;;;;15.31;91.07;100139.81;5060685;28;20078;-61
2023/08/07 01:01:05;;;;;;;3.03;1.60;;;;;;;15.22;90.88;100140.28;5070451;28;20024;-62
2023/08/07 01:03:30;;;;;;;3.85;1.20;;;;;;;15.15;90.66;100154.91;5071685;28;20114;-62
2023/08/07 01:05:55;;;;;;;1.83;1.05;;;;;;;15.09;91.09;100148.03;5077494;28;20026;-62
2023/08/07 01:08:21;;;;;;;3.92;1.30;;;;;;;15.04;91.66;100151.91;5084867;28;20043;-61
2023/08/07 01:10:52;;;;;;;5.03;1.48;;;;;;;15.00;91.65;100151.19;5072903;28;20032;-62
2023/08/07 01:13:32;;;;;;;2.85;1.10;;;;;;;14.96;91.65;100154.94;5070395;28;20076;-61
2023/08/07 01:16:07;;;;;;;5.35;1.40;;;;;;;14.92;91.79;100158.72;5070539;28;20508;-63
2023/08/07 01:18:34;;;;;;;3.17;1.20;;;;;;;14.92;91.91;100164.06;5070456;28;20032;-62
2023/08/07 01:21:00;;;;;;;5.03;1.88;;;;;;;14.89;92.28;100160.66;5090236;28;20070;-62
2023/08/07 01:23:25;;;;;;;3.75;1.58;;;;;;;14.78;92.86;100166.53;5090115;28;20652;-62
2023/08/07 01:25:51;;;;;;;1.85;1.20;;;;;;;14.74;93.50;100164.06;5078125;28;20451;-62
2023/08/07 01:28:42;;;;;;;2.42;1.10;;;;;;;14.74;93.88;100170.31;5069687;28;20415;-62
2023/08/07 01:31:14;;;;;;;3.60;0.98;;;;;;;14.73;94.00;100165.88;5071329;28;20029;-62
2023/08/07 01:34:04;;;;;;;2.33;1.30;;;;;;;14.70;93.66;100165.13;5073666;28;20391;-62
2023/08/07 01:36:30;;;;;;;2.55;1.40;;;;;;;14.70;93.94;100178.53;5077943;28;20024;-62
2023/08/07 01:38:59;;;;;;;3.35;1.38;;;;;;;14.69;94.06;100174.13;5079460;28;20077;-63
2023/08/07 01:41:25;;;;;;;3.72;1.52;;;;;;;14.69;93.85;100177.69;5089084;28;20072;-63
2023/08/07 01:43:51;;;;;;;3.78;1.48;;;;;;;14.66;93.98;100185.84;5077291;28;20036;-63
2023/08/07 01:46:18;;;;;;;3.40;1.10;;;;;;;14.63;94.60;100183.28;5082197;28;20570;-63
2023/08/07 01:48:44;;;;;;;3.42;1.33;;;;;;;14.62;94.39;100178.91;5087306;28;20119;-62
2023/08/07 01:51:09;;;;;;;5.30;1.38;;;;;;;14.61;94.15;100185.19;5069893;28;20123;-63
2023/08/07 01:53:34;;;;;;;4.63;1.25;;;;;;;14.61;94.18;100185.19;5069458;28;20025;-63
2023/08/07 01:56:00;;;;;;;4.18;1.30;;;;;;;14.59;93.75;100187.06;5070427;28;20544;-63
2023/08/07 01:58:26;;;;;;;2.95;1.40;;;;;;;14.59;94.09;100192.44;5068510;28;20020;-63
2023/08/07 02:00:51;;;;;;;4.22;1.42;;;;;;;14.60;93.90;100194.16;5071259;28;20032;-62
2023/08/07 02:03:17;;;;;;;3.92;1.50;;;;;;;14.59;94.95;100191.56;5089009;28;20471;-62
2023/08/07 02:05:45;;;;;;;4.18;1.52;;;;;;;14.57;95.76;100199.66;5088716;28;20046;-63
2023/08/07 02:08:10;;;;;;;6.47;1.40;;;;;;;14.51;95.68;100189.25;5077492;28;20511;-62
2023/08/07 02:10:36;;;;;;;2.22;1.27;;;;;;;14.50;94.86;100200.88;5088801;28;20039;-62
2023/08/07 02:13:01;;;;;;;2.80;1.35;;;;;;;14.41;94.92;100203.97;5088725;28;20039;-63
2023/08/07 02:15:26;;;;;;;3.38;1.30;;;;;;;14.33;95.90;100192.75;5071261;28;20108;-63
2023/08/07 02:17:52;;;;;;;1.45;0.90;;;;;;;14.36;96.90;100200.63;5068183;28;20028;-63
2023/08/07 02:20:17;;;;;;;2.63;1.38;;;;;;;14.33;96.32;100195.44;5070591;28;20108;-62
2023/08/07 02:22:43;;;;;;;3.60;1.30;;;;;;;14.28;96.56;100195.59;5067624;28;20028;-61
2023/08/07 02:25:08;;;;;;;3.83;1.50;;;;;;;14.26;96.82;100199.31;5067567;28;20120;-63
2023/08/07 02:27:34;;;;;;;3.83;1.20;;;;;;;14.21;97.31;100204.84;5072996;28;20032;-61
2023/08/07 02:29:59;;;;;;;2.95;1.50;;;;;;;14.15;97.83;100206.91;5067814;28;20035;-62
2023/08/07 02:32:24;;;;;;;3.03;1.33;;;;;;;14.04;97.89;100190.44;5068372;28;20052;-62
2023/08/07 02:34:50;;;;;;;3.50;1.65;;;;;;;14.07;98.32;100198.31;5069769;28;20024;-62
2023/08/07 02:37:16;;;;;;;3.28;1.58;;;;;;;13.99;98.15;100205.81;5081539;28;20740;-63
2023/08/07 02:39:42;;;;;;;5.30;1.65;;;;;;;13.96;97.82;100203.28;5077292;28;20087;-62
2023/08/07 02:42:08;;;;;;;2.13;1.23;;;;;;;14.00;97.69;100210.25;5068539;28;20503;-62
2023/08/07 02:44:33;;;;;;;3.03;1.92;;;;;;;14.03;98.66;100202.09;5080380;28;20033;-63
2023/08/07 02:46:59;;;;;;;2.13;1.20;;;;;;;14.01;98.30;100203.94;5080845;28;20020;-62
2023/08/07 02:49:24;;;;;;;3.20;1.60;;;;;;;13.96;99.27;100190.78;5077220;28;20062;-61
2023/08/07 02:51:49;;;;;;;2.50;1.48;;;;;;;13.95;99.19;100196.22;5088432;28;20131;-62
2023/08/07 02:54:15;;;;;;;2.25;1.20;;;;;;;13.89;99.40;100191.09;5087540;28;20027;-62
2023/08/07 02:56:41;;;;;;;3.53;1.65;;;;;;;13.88;99.73;100197.41;5070911;28;20043;-62
2023/08/07 02:59:06;;;;;;;5.22;1.70;;;;;;;13.89;100.00;100188.44;5068392;28;20071;-62
2023/08/07 03:01:32;;;;;;;4.00;1.23;;;;;;;13.87;100.00;100201.03;5080470;28;20031;-62
2023/08/07 03:03:57;;;;;;;4.53;1.50;;;;;;;13.88;100.00;100181.34;5088310;28;20032;-61
2023/08/07 03:06:23;;;;;;;2.75;1.52;;;;;;;13.81;100.00;100187.91;5085830;28;20108;-61
2023/08/07 03:08:48;;;;;;;3.47;1.50;;;;;;;13.80;100.00;100194.19;5070113;28;20028;-62
2023/08/07 03:11:14;;;;;;;3.13;1.48;;;;;;;13.76;100.00;100192.56;5068486;28;20125;-62
2023/08/07 03:13:39;;;;;;;3.90;1.77;;;;;;;13.78;100.00;100180.00;5070648;28;20024;-62
2023/08/07 03:16:07;;;;;;;14.95;2.85;;;;;;;13.76;100.00;100192.56;5068472;28;20075;-63
2023/08/07 03:18:33;;;;;;;3.85;1.35;;;;;;;13.73;100.00;100198.06;5070818;28;20021;-63
2023/08/07 03:20:59;;;;;;;2.72;1.50;;;;;;;13.71;100.00;100197.25;5067720;28;20472;-62
2023/08/07 03:23:25;;;;;;;12.60;2.35;;;;;;;13.72;100.00;100194.50;5075612;28;20032;-63
2023/08/07 03:25:51;;;;;;;5.03;1.58;;;;;;;13.72;100.00;100189.16;5087477;28;20391;-62
2023/08/07 03:28:16;;;;;;;32.58;3.78;;;;;;;13.68;100.00;100192.03;5086465;28;20031;-62
2023/08/07 03:30:42;;;;;;;5.45;1.60;;;;;;;13.66;100.00;100185.88;5065667;28;20101;-63
2023/08/07 03:33:07;;;;;;;3.85;1.70;;;;;;;13.64;100.00;100193.09;5086352;28;20024;-62
2023/08/07 03:35:33;;;;;;;5.00;1.25;;;;;;;13.60;100.00;100187.03;5080055;28;20035;-62
2023/08/07 03:37:58;;;;;;;10.70;2.05;;;;;;;13.62;100.00;100185.16;5086345;28;20023;-62
2023/08/07 03:40:24;;;;;;;2.67;1.40;;;;;;;13.61;100.00;100183.41;5087135;28;20106;-63
2023/08/07 03:42:49;;;;;;;2.55;1.50;;;;;;;13.54;100.00;100189.94;5081209;28;20031;-62
2023/08/07 03:45:14;;;;;;;4.38;1.63;;;;;;;13.59;100.00;100192.44;5067196;28;20036;-62
2023/08/07 03:47:40;;;;;;;6.82;1.67;;;;;;;13.55;100.00;100177.44;5069104;28;20020;-62
2023/08/07 03:50:06;;;;;;;2.83;1.60;;;;;;;13.56;100.00;100189.91;5069255;28;20043;-62
2023/08/07 03:52:31;;;;;;;5.30;1.92;;;;;;;13.58;100.00;100188.00;5066923;28;20356;-61
2023/08/07 03:54:57;;;;;;;7.97;1.75;;;;;;;13.56;100.00;100189.91;5069228;28;20025;-62
2023/08/07 03:57:22;;;;;;;3.30;1.48;;;;;;;13.52;100.00;100190.94;5067108;28;20115;-62
2023/08/07 03:59:48;;;;;;;3.45;1.73;;;;;;;13.54;100.00;100192.59;5066921;28;20025;-62
2023/08/07 04:02:13;;;;;;;3.33;1.80;;;;;;;13.51;100.00;100199.91;5070095;28;20025;-62
2023/08/07 04:04:38;;;;;;;4.40;1.60;;;;;;;13.48;100.00;100197.34;5067786;28;20518;-62
2023/08/07 04:07:04;;;;;;;5.13;1.67;;;;;;;13.53;100.00;100206.03;5077804;28;20055;-63
2023/08/07 04:09:29;;;;;;;3.08;1.55;;;;;;;13.54;100.00;100202.44;5067791;28;20070;-63
2023/08/07 04:11:55;;;;;;;4.18;1.52;;;;;;;13.45;100.00;100192.13;5067926;28;20033;-63
2023/08/07 04:14:20;;;;;;;3.70;1.55;;;;;;;13.47;100.00;100199.16;5067536;28;20024;-62
2023/08/07 04:16:46;;;;;;;4.35;1.83;;;;;;;13.48;100.00;100197.34;5075267;28;20032;-63
2023/08/07 04:19:11;;;;;;;4.90;2.03;;;;;;;13.41;100.00;100187.84;5086883;28;20783;-62
2023/08/07 04:21:36;;;;;;;5.32;2.08;;;;;;;13.50;100.00;100195.47;5069027;28;20103;-62
2023/08/07 04:24:10;;;;;;;4.38;1.90;;;;;;;13.59;100.00;100197.78;5070322;28;20028;-62
2023/08/07 04:26:36;;;;;;;5.22;1.77;;;;;;;13.63;100.00;100205.59;5067744;28;20035;-62
2023/08/07 04:29:02;;;;;;;5.07;1.40;;;;;;;13.61;100.00;100194.09;5071044;28;20068;-61
2023/08/07 04:31:27;;;;;;;4.38;1.80;;;;;;;13.72;100.00;100196.31;5087859;28;20153;-62
2023/08/07 04:33:53;;;;;;;5.00;1.80;;;;;;;13.73;100.00;100198.94;5090273;28;20143;-62
2023/08/07 04:36:18;;;;;;;9.02;4.45;;;;;;;13.72;100.00;100193.66;5083346;28;20491;-62
2023/08/07 04:38:44;;;;;;;11.07;5.25;;;;;;;13.82;100.00;100209.22;5089738;28;20031;-62
2023/08/07 04:41:09;;;;;;;13.30;5.57;;;;;;;13.92;100.00;100205.22;5089655;28;20394;-62
2023/08/07 04:43:35;;;;;;;11.18;4.88;;;;;;;13.98;100.00;100214.78;5088865;28;20447;-62
2023/08/07 04:46:00;;;;;;;10.80;3.72;;;;;;;14.06;100.00;100202.84;5071502;28;20032;-63
2023/08/07 04:48:26;;;;;;;7.38;2.75;;;;;;;14.13;100.00;100208.78;5068194;28;20127;-62
2023/08/07 04:50:51;;;;;;;7.78;2.08;;;;;;;14.16;100.00;100209.53;5089275;28;20107;-62
2023/08/07 04:53:17;;;;;;;6.97;2.85;;;;;;;14.17;100.00;100210.38;5086836;28;20039;-62
2023/08/07 04:55:43;;;;;;;7.05;2.50;;;;;;;14.24;100.00;100222.53;5084240;28;20441;-62
2023/08/07 04:58:08;;;;;;;12.05;4.75;;;;;;;14.31;100.00;100216.91;5090299;28;20028;-63
2023/08/07 05:00:34;;;;;;;12.65;4.10;;;;;;;14.34;100.00;100218.56;5073834;28;20085;-62
2023/08/07 05:03:01;;;;;;;10.45;3.70;;;;;;;14.43;100.00;100213.66;5090215;28;20032;-61
2023/08/07 05:05:27;;;;;;;9.93;3.50;;;;;;;14.46;100.00;100213.50;5090833;28;20028;-62
2023/08/07 05:07:55;;;;;;;9.85;2.30;;;;;;;14.56;100.00;100222.03;5090076;28;20131;-62
2023/08/07 05:10:20;;;;;;;11.40;3.75;;;;;;;14.62;100.00;100224.41;5083856;28;20044;-62
2023/08/07 05:12:45;;;;;;;3.17;1.88;;;;;;;14.69;100.00;100217.84;5069948;28;20024;-62
2023/08/07 05:15:11;;;;;;;4.88;1.85;;;;;;;14.70;100.00;100226.72;5082385;28;20032;-62
2023/08/07 05:17:36;;;;;;;3.58;1.50;;;;;;;14.72;100.00;100219.50;5071969;28;20020;-62
2023/08/07 05:20:02;;;;;;;2.72;1.42;;;;;;;14.82;100.00;100227.03;5069257;28;20025;-61
2023/08/07 05:22:27;;;;;;;2.83;1.60;;;;;;;14.89;100.00;100225.78;5077242;28;20039;-62
2023/08/07 05:24:53;;;;;;;3.15;1.55;;;;;;;14.98;100.00;100235.22;5089849;28;20994;-62
2023/08/07 05:27:18;;;;;;;6.47;1.80;;;;;;;14.96;100.00;100232.59;5088277;28;20031;-61
2023/08/07 05:29:44;;;;;;;4.25;1.65;;;;;;;15.03;100.00;100226.03;5079893;28;20062;-62
2023/08/07 05:32:11;;;;;;;3.53;1.58;;;;;;;15.04;99.28;100227.75;5090180;28;20027;-62
2023/08/07 05:34:36;;;;;;;6.53;1.55;;;;;;;15.12;98.63;100227.41;5090571;28;20169;-62
2023/08/07 05:37:02;;;;;;;3.50;1.73;;;;;;;15.13;97.78;100237.16;5086761;28;20111;-63
2023/08/07 05:39:27;;;;;;;7.30;1.70;;;;;;;15.11;97.44;100234.56;5089891;28;20400;-62
2023/08/07 05:41:54;;;;;;;4.95;1.58;;;;;;;15.20;98.37;100239.50;5089810;28;20118;-62
2023/08/07 05:44:19;;;;;;;5.97;1.52;;;;;;;15.30;98.11;100237.25;5085368;28;20059;-62
2023/08/07 05:46:45;;;;;;;3.22;1.80;;;;;;;15.39;98.26;100242.19;5089724;28;20432;-62
2023/08/07 05:49:10;;;;;;;3.25;1.58;;;;;;;15.40;97.47;100242.09;5089967;28;20026;-61
2023/08/07 05:51:36;;;;;;;2.50;1.40;;;;;;;15.48;97.76;100245.31;5087350;28;20036;-61
2023/08/07 05:54:01;;;;;;;3.33;1.63;;;;;;;15.57;97.58;100254.69;5070686;28;20129;-62
2023/08/07 05:56:26;;;;;;;4.65;2.00;;;;;;;15.61;97.31;100254.47;5088000;28;20024;-63
2023/08/07 05:58:52;;;;;;;7.50;1.80;;;;;;;15.64;97.19;100251.66;5084574;28;20032;-63
2023/08/07 06:01:17;;;;;;;4.68;1.77;;;;;;;15.58;95.97;100248.41;5070287;28;20024;-62
2023/08/07 06:03:43;;;;;;;5.43;1.92;;;;;;;15.78;95.34;100251.81;5086220;28;20055;-61
2023/08/07 06:06:08;;;;;;;6.60;1.92;;;;;;;15.91;94.76;100254.78;5075820;28;20189;-61
2023/08/07 06:08:34;;;;;;;14.98;2.50;;;;;;;16.11;94.68;100268.00;5089238;28;20096;-62
2023/08/07 06:11:03;;;;;;;3.92;1.55;;;;;;;16.23;93.47;100261.16;5075045;28;20576;-62
2023/08/07 06:13:28;;;;;;;2.78;1.50;;;;;;;16.20;92.01;100261.31;5068026;28;20028;-62
2023/08/07 06:15:54;;;;;;;6.43;2.95;;;;;;;16.20;92.04;100264.00;5070385;28;20042;-61
2023/08/07 06:18:20;;;;;;;11.30;2.75;;;;;;;16.22;91.92;100262.09;5070713;28;20551;-62
2023/08/07 06:20:46;;;;;;;7.78;2.33;;;;;;;16.32;92.25;100261.56;5068042;28;20029;-62
2023/08/07 06:23:12;;;;;;;17.15;3.63;;;;;;;16.39;91.66;100262.13;5078419;28;20461;-62
2023/08/07 06:25:37;;;;;;;13.98;4.93;;;;;;;16.55;90.60;100268.44;5088828;28;20168;-63
2023/08/07 06:28:03;;;;;;;8.77;2.78;;;;;;;16.58;89.04;100263.78;5085417;28;20395;-62
2023/08/07 06:30:30;;;;;;;7.43;3.45;;;;;;;16.64;89.50;100273.31;5085134;28;20025;-62
2023/08/07 06:32:56;;;;;;;4.80;2.20;;;;;;;16.74;88.56;100275.44;5071574;28;20076;-62
2023/08/07 06:35:21;;;;;;;5.70;2.40;;;;;;;16.81;88.25;100267.91;5070656;28;20028;-61
2023/08/07 06:37:46;;;;;;;7.60;2.30;;;;;;;16.85;87.97;100277.56;5083048;28;20034;-61
2023/08/07 06:40:12;;;;;;;6.63;2.25;;;;;;;16.95;87.30;100273.44;5084441;28;20114;-63
2023/08/07 06:42:37;;;;;;;7.25;2.70;;;;;;;17.00;87.52;100265.97;5088369;28;20161;-63
2023/08/07 06:45:03;;;;;;;9.68;3.50;;;;;;;17.18;88.12;100280.22;5072718;28;20047;-63
2023/08/07 06:47:29;;;;;;;5.70;2.95;;;;;;;17.44;88.06;100269.75;5085029;28;20036;-62
2023/08/07 06:49:54;;;;;;;8.23;3.20;;;;;;;17.62;86.33;100275.94;5083547;28;20387;-62
2023/08/07 06:52:20;;;;;;;7.70;3.38;;;;;;;17.74;84.75;100270.69;5087892;28;20039;-62
2023/08/07 06:54:45;;;;;;;5.43;2.38;;;;;;;17.69;83.92;100274.63;5085430;28;20344;-62
2023/08/07 06:57:10;;;;;;;2.90;1.17;;;;;;;17.45;83.86;100284.03;5088250;28;20032;-63
2023/08/07 06:59:36;;;;;;;2.95;1.30;;;;;;;17.41;85.06;100291.44;5083908;28;20490;-62
2023/08/07 07:02:02;;;;;;;3.65;1.35;;;;;;;17.53;86.54;100288.06;5087366;28;20024;-62
2023/08/07 07:04:28;;;;;;;5.00;1.63;;;;;;;17.51;86.54;100291.81;5086280;28;20027;-61
2023/08/07 07:06:53;;;;;;;3.50;1.30;;;;;;;17.55;86.55;100290.69;5086056;28;20090;-62
2023/08/07 07:09:19;;;;;;;2.30;1.45;;;;;;;17.78;83.93;100287.53;5083918;28;20081;-62
2023/08/07 07:11:44;;;;;;;2.97;1.42;;;;;;;17.94;84.40;100297.34;5075323;28;20416;-62
2023/08/07 07:14:10;;;;;;;2.22;1.13;;;;;;;18.21;81.96;100293.03;5083730;28;20028;-62
2023/08/07 07:16:36;;;;;;;2.78;1.42;;;;;;;18.41;77.58;100296.38;5076434;28;20100;-62
2023/08/07 07:19:02;;;;;;;2.53;1.10;;;;;;;18.62;76.86;100303.16;5084079;28;20177;-62
2023/08/07 07:21:27;;;;;;;2.83;1.20;;;;;;;18.79;74.84;100300.31;5078764;28;20110;-62
2023/08/07 07:23:52;;;;;;;3.85;1.50;;;;;;;18.96;74.79;100308.22;5084189;28;20043;-63
2023/08/07 07:26:18;;;;;;;1.45;0.98;;;;;;;19.21;73.22;100309.28;5081420;28;20126;-62
2023/08/07 07:28:43;;;;;;;3.67;1.08;;;;;;;19.35;69.34;100309.31;5087867;28;20143;-61
2023/08/07 07:31:11;;;;;;;1.70;0.98;;;;;;;19.62;70.65;100312.94;5084461;28;20036;-62
2023/08/07 07:33:39;;;;;;;3.17;1.30;;;;;;;19.78;66.43;100318.22;5077988;28;20032;-62
2023/08/07 07:36:06;;;;;;;2.97;1.00;;;;;;;19.99;64.74;100324.91;5073274;28;20024;-62
2023/08/07 07:38:31;;;;;;;2.05;1.00;;;;;;;20.14;61.56;100323.88;5082265;28;20016;-63
2023/08/07 07:40:57;;;;;;;3.30;1.10;;;;;;;20.35;62.58;100318.88;5078456;28;20024;-62
2023/08/07 07:43:23;;;;;;;1.55;1.15;;;;;;;20.35;60.54;100327.88;5077583;28;20531;-62
2023/08/07 07:45:49;;;;;;;3.35;0.85;;;;;;;20.80;61.22;100316.63;5069552;28;20613;-62
2023/08/07 07:48:15;;;;;;;1.08;0.77;;;;;;;20.92;58.94;100329.25;5070699;28;20047;-62
2023/08/07 07:50:41;;;;;;;2.03;1.05;;;;;;;21.06;56.20;100330.16;5068567;28;20488;-62
2023/08/07 07:53:06;;;;;;;1.55;1.10;;;;;;;20.95;55.54;100329.03;5051185;28;20496;-62
2023/08/07 07:55:32;;;;;;;2.25;0.98;;;;;;;20.71;56.90;100335.28;5087576;28;20024;-63
2023/08/07 07:57:57;;;;;;;1.30;0.70;;;;;;;20.71;56.26;100336.16;5078209;28;20361;-63
2023/08/07 08:00:26;;;;;;;1.42;0.70;;;;;;;20.63;56.07;100343.94;5071279;28;20376;-62
2023/08/07 08:02:53;;;;;;;2.17;0.70;;;;;;;20.75;56.15;100334.13;5074019;28;20116;-61
2023/08/07 08:05:18;;;;;;;1.98;0.80;;;;;;;21.30;55.57;100333.84;5053891;28;20032;-63
2023/08/07 08:07:44;;;;;;;2.75;0.98;;;;;;;21.89;54.77;100333.09;5072525;28;20039;-63
2023/08/07 08:10:09;;;;;;;3.17;1.23;;;;;;;22.36;53.42;100333.13;5062872;28;20054;-62
2023/08/07 08:12:35;;;;;;;2.50;0.93;;;;;;;22.48;51.98;100331.31;5075153;28;20028;-63
2023/08/07 08:15:02;;;;;;;2.47;0.77;;;;;;;22.17;49.31;100338.22;5077863;28;20039;-62
2023/08/07 08:17:28;;;;;;;2.42;1.00;;;;;;;21.92;51.12;100338.28;5078201;28;20040;-63
2023/08/07 08:19:53;;;;;;;2.65;1.00;;;;;;;21.73;50.82;100333.31;5073357;28;20029;-61
2023/08/07 08:22:19;;;;;;;1.85;0.75;;;;;;;21.70;50.83;100343.50;5077482;28;20095;-61
2023/08/07 08:24:44;;;;;;;3.72;0.90;;;;;;;22.24;50.69;100342.16;5083852;28;20035;-63
2023/08/07 08:27:10;;;;;;;2.28;0.82;;;;;;;22.24;49.05;100344.03;5084706;28;20027;-62
2023/08/07 08:29:35;;;;;;;2.40;0.70;;;;;;;22.05;50.74;100349.94;5079384;28;20082;-61
2023/08/07 08:32:00;;;;;;;1.77;0.90;;;;;;;22.19;49.94;100347.94;5088021;28;20053;-62
2023/08/07 08:34:27;;;;;;;2.88;0.80;;;;;;;22.12;50.40;100345.81;5075678;28;20040;-62
2023/08/07 08:36:53;;;;;;;2.15;0.77;;;;;;;22.28;51.49;100345.50;5076966;28;20051;-62
2023/08/07 08:39:18;;;;;;;1.38;0.75;;;;;;;22.49;50.23;100333.91;5087974;28;20111;-61
2023/08/07 08:41:47;;;;;;;3.80;0.80;;;;;;;22.92;49.84;100337.78;5077344;28;20036;-62
2023/08/07 08:44:14;;;;;;;2.35;0.93;;;;;;;22.84;49.84;100340.22;5086333;28;20042;-62
2023/08/07 08:46:42;;;;;;;1.55;0.85;;;;;;;22.19;52.59;100341.63;5069980;28;20046;-62
2023/08/07 08:49:10;;;;;;;1.15;0.73;;;;;;;21.80;51.93;100334.66;5069128;28;20033;-61
2023/08/07 08:51:36;;;;;;;3.65;1.00;;;;;;;21.48;53.09;100344.19;5071392;28;20036;-61
2023/08/07 08:54:02;;;;;;;3.22;0.75;;;;;;;21.00;52.90;100344.13;5068756;28;20039;-62
2023/08/07 08:56:29;;;;;;;3.97;1.10;;;;;;;20.67;55.96;100339.19;5069933;28;20040;-60
2023/08/07 08:58:55;;;;;;;3.08;0.77;;;;;;;20.68;56.06;100333.69;5069413;28;20439;-61
2023/08/07 09:01:21;;;;;;;1.75;0.70;;;;;;;20.67;55.43;100340.03;5078321;28;20021;-61
2023/08/07 09:03:47;;;;;;;1.60;0.90;;;;;;;20.79;56.51;100344.59;5080419;28;20035;-61
2023/08/07 09:06:13;;;;;;;2.47;0.98;;;;;;;20.73;55.30;100342.34;5072501;28;20572;-62
2023/08/07 09:08:43;;;;;;;3.70;0.90;;;;;;;20.84;57.44;100336.16;5088334;28;20046;-61
2023/08/07 09:11:09;;;;;;;1.77;1.05;;;;;;;21.16;55.74;100336.66;5078905;28;20047;-60
2023/08/07 09:13:37;;;;;;;2.88;1.33;;;;;;;21.15;55.12;100340.34;5069776;28;20842;-61
2023/08/07 09:16:04;;;;;;;2.13;0.90;;;;;;;21.20;57.18;100338.19;5077242;28;20758;-61
2023/08/07 09:18:29;;;;;;;2.58;0.98;;;;;;;21.07;55.03;100342.72;5080023;28;20024;-60
2023/08/07 09:20:57;;;;;;;3.13;1.10;;;;;;;20.82;55.08;100338.97;5075165;28;20038;-60
2023/08/07 09:23:24;;;;;;;2.00;1.00;;;;;;;20.99;57.52;100337.00;5088638;28;20062;-60
2023/08/07 09:26:01;;;;;;;1.20;0.90;;;;;;;21.47;56.53;100347.03;5088071;28;20030;-61
2023/08/07 09:28:29;;;;;;;2.22;0.90;;;;;;;21.36;54.72;100349.63;5086019;28;20029;-61
2023/08/07 09:30:55;;;;;;;3.05;1.02;;;;;;;21.17;55.98;100338.41;5074602;28;20033;-61
2023/08/07 09:33:28;;;;;;;1.73;0.80;;;;;;;21.15;55.71;100343.06;5070284;28;20032;-61
2023/08/07 09:35:58;;;;;;;1.73;0.93;;;;;;;21.70;55.72;100340.81;5072284;28;20457;-60
2023/08/07 09:38:27;;;;;;;1.75;1.00;;;;;;;21.90;51.96;100337.53;5083995;28;20039;-61
2023/08/07 09:40:53;;;;;;;2.63;1.10;;;;;;;22.31;52.52;100339.84;5084371;28;20616;-60
2023/08/07 09:43:22;;;;;;;1.15;0.80;;;;;;;22.82;52.08;100333.19;5082209;28;20028;-61
2023/08/07 09:45:50;;;;;;;3.72;1.23;;;;;;;23.57;51.22;100339.84;5081428;28;20788;-62
2023/08/07 09:48:24;;;;;;;1.58;0.88;;;;;;;24.08;48.09;100330.19;5082577;28;20023;-61
2023/08/07 09:50:50;;;;;;;2.47;1.00;;;;;;;24.35;46.89;100333.28;5068534;28;20056;-62
2023/08/07 09:53:15;;;;;;;2.03;0.90;;;;;;;24.45;46.17;100331.53;5067857;28;20090;-62
2023/08/07 09:55:40;;;;;;;2.50;0.70;;;;;;;24.00;47.75;100338.13;5076288;28;20031;-61
2023/08/07 09:58:08;;;;;;;2.10;0.90;;;;;;;23.66;48.42;100344.56;5086402;28;20375;-61
2023/08/07 10:00:35;;;;;;;2.45;0.70;;;;;;;23.59;48.93;100338.72;5085498;28;20024;-61
2023/08/07 10:03:02;;;;;;;2.20;0.90;;;;;;;23.56;48.56;100340.84;5085260;28;20031;-61
2023/08/07 10:05:28;;;;;;;3.10;1.10;;;;;;;23.46;48.18;100332.56;5073565;28;20028;-61
2023/08/07 10:07:55;;;;;;;1.50;0.93;;;;;;;23.26;49.09;100331.44;5072086;28;20055;-61
2023/08/07 10:10:21;;;;;;;3.45;0.90;;;;;;;23.04;50.79;100336.84;5070672;28;20116;-61
2023/08/07 10:12:48;;;;;;;2.05;0.90;;;;;;;22.72;50.88;100333.03;5069256;28;20115;-61
2023/08/07 10:15:15;;;;;;;2.35;0.90;;;;;;;22.75;49.57;100330.06;5068824;28;20067;-61
2023/08/07 10:17:41;;;;;;;2.08;0.82;;;;;;;23.49;50.77;100326.91;5073985;28;20452;-60
2023/08/07 10:20:08;;;;;;;1.00;0.88;;;;;;;24.29;48.93;100340.13;5068371;28;20029;-61
2023/08/07 10:22:36;;;;;;;1.45;0.75;;;;;;;23.71;46.04;100331.44;5072190;28;20503;-61
2023/08/07 10:25:02;;;;;;;4.80;1.23;;;;;;;22.92;48.61;100332.34;5085719;28;20115;-61
2023/08/07 10:27:33;;;;;;;1.48;1.00;;;;;;;22.43;50.77;100337.09;5083347;28;20078;-61
2023/08/07 10:30:01;;;;;;;1.63;0.80;;;;;;;22.91;49.64;100330.63;5072997;28;20024;-62
2023/08/07 10:32:28;;;;;;;3.63;0.90;;;;;;;23.57;46.79;100334.41;5068220;28;20024;-61
2023/08/07 10:34:54;;;;;;;2.13;0.82;;;;;;;24.23;46.85;100323.47;5075863;28;20036;-61
2023/08/07 10:37:41;;;;;;;2.13;0.80;;;;;;;23.76;45.79;100330.06;5075352;28;20092;-60
2023/08/07 10:40:11;;;;;;;1.95;0.85;;;;;;;23.38;47.99;100329.59;5069277;28;20028;-60
2023/08/07 10:42:54;;;;;;;2.83;0.95;;;;;;;22.77;49.25;100333.53;5085440;28;20157;-59
2023/08/07 10:45:22;;;;;;;3.28;0.90;;;;;;;22.16;48.78;100333.75;5080624;28;20028;-60
2023/08/07 10:48:02;;;;;;;1.73;0.80;;;;;;;21.86;49.97;100333.34;5068200;28;20048;-60
2023/08/07 10:50:32;;;;;;;1.45;0.93;;;;;;;21.68;53.33;100348.19;5067448;28;20374;-60
2023/08/07 10:53:01;;;;;;;1.65;0.90;;;;;;;21.82;54.37;100337.25;5069262;28;20036;-60
2023/08/07 10:55:27;;;;;;;1.73;0.70;;;;;;;22.06;52.21;100338.13;5071536;28;20035;-59
2023/08/07 10:57:53;;;;;;;2.17;0.98;;;;;;;22.38;51.34;100333.88;5070126;28;20874;-60
2023/08/07 11:00:25;;;;;;;2.70;0.90;;;;;;;22.99;52.53;100333.59;5071549;28;20027;-59
2023/08/07 11:02:51;;;;;;;1.25;0.82;;;;;;;23.90;48.12;100328.94;5072530;28;20094;-60
2023/08/07 11:05:17;;;;;;;2.67;0.75;;;;;;;24.22;46.77;100332.59;5073397;28;20062;-60
2023/08/07 11:07:44;;;;;;;2.58;0.80;;;;;;;23.40;45.77;100336.66;5078199;28;20067;-61
2023/08/07 11:10:15;;;;;;;1.67;0.98;;;;;;;22.65;48.81;100331.78;5082391;28;20130;-59
2023/08/07 11:12:41;;;;;;;1.25;0.68;;;;;;;22.23;50.84;100348.56;5080187;28;20119;-60
2023/08/07 11:15:07;;;;;;;2.97;0.93;;;;;;;21.89;51.62;100335.81;5076800;28;20074;-61
2023/08/07 11:17:32;;;;;;;3.45;0.90;;;;;;;22.67;51.60;100332.53;5085103;28;20028;-60